createdAt,value
2022-09-06T00:01:27.870Z,18.90
2022-09-06T00:03:54.576Z,18.92
2022-09-06T00:06:21.272Z,18.82
2022-09-06T00:08:49.360Z,18.82
2022-09-06T00:11:17.866Z,18.81
2022-09-06T00:13:45.059Z,18.76
2022-09-06T00:16:20.468Z,18.64
2022-09-06T00:18:47.321Z,18.68
2022-09-06T00:21:26.807Z,18.70
2022-09-06T00:23:54.067Z,18.64
2022-09-06T00:26:22.458Z,18.70
2022-09-06T00:28:49.774Z,18.65
2022-09-06T00:31:24.084Z,18.63
2022-09-06T00:33:51.375Z,18.60
2022-09-06T00:36:19.751Z,18.51
2022-09-06T00:39:05.304Z,18.57
2022-09-06T00:41:43.119Z,18.49
2022-09-06T00:44:10.111Z,18.53
2022-09-06T00:46:42.322Z,18.45
2022-09-06T00:49:24.123Z,18.40
2022-09-06T00:51:55.827Z,18.46
2022-09-06T00:54:22.803Z,18.46
2022-09-06T00:56:50.506Z,18.41
2022-09-06T00:59:17.837Z,18.49
2022-09-06T01:01:45.749Z,18.43
2022-09-06T01:04:13.607Z,18.40
2022-09-06T01:07:09.416Z,18.36
2022-09-06T01:10:15.043Z,18.46
2022-09-06T01:12:52.315Z,18.43
2022-09-06T01:15:35.600Z,18.42
2022-09-06T01:18:32.922Z,18.39
2022-09-06T01:21:37.971Z,18.41
2022-09-06T01:24:16.294Z,18.37
2022-09-06T01:27:13.062Z,18.36
2022-09-06T01:30:00.035Z,18.31
2022-09-06T01:32:28.430Z,18.29
2022-09-06T01:35:36.389Z,18.23
2022-09-06T01:38:05.013Z,18.26
2022-09-06T01:40:36.289Z,18.14
2022-09-06T01:43:12.886Z,18.13
2022-09-06T01:46:00.597Z,18.10
2022-09-06T01:48:42.513Z,18.11
2022-09-06T01:51:34.850Z,18.08
2022-09-06T01:54:16.251Z,18.05
2022-09-06T01:57:11.657Z,18.02
2022-09-06T01:59:38.225Z,18.02
2022-09-06T02:02:15.269Z,18.04
2022-09-06T02:04:58.307Z,18.02
2022-09-06T02:07:29.490Z,17.91
2022-09-06T02:10:16.956Z,17.99
2022-09-06T02:12:49.900Z,18.02
2022-09-06T02:15:28.407Z,17.97
2022-09-06T02:18:06.114Z,17.96
2022-09-06T02:20:41.603Z,17.98
2022-09-06T02:23:10.155Z,17.89
2022-09-06T02:25:53.064Z,17.92
2022-09-06T02:28:20.142Z,17.83
2022-09-06T02:30:53.405Z,17.87
2022-09-06T02:33:24.398Z,17.91
2022-09-06T02:35:54.527Z,17.95
2022-09-06T02:38:39.415Z,17.97
2022-09-06T02:41:07.886Z,17.97
2022-09-06T02:43:34.566Z,17.96
2022-09-06T02:46:01.310Z,17.95
2022-09-06T02:48:28.565Z,17.98
2022-09-06T02:50:55.261Z,17.87
2022-09-06T02:53:22.242Z,17.86
2022-09-06T02:55:49.252Z,17.82
2022-09-06T02:58:16.173Z,17.91
2022-09-06T03:00:44.044Z,17.84
2022-09-06T03:03:10.924Z,17.90
2022-09-06T03:05:37.571Z,17.80
2022-09-06T03:08:04.213Z,17.78
2022-09-06T03:10:30.892Z,17.79
2022-09-06T03:12:58.543Z,17.70
2022-09-06T03:15:25.264Z,17.69
2022-09-06T03:17:51.950Z,17.69
2022-09-06T03:20:18.773Z,17.60
2022-09-06T03:22:45.415Z,17.51
2022-09-06T03:25:12.079Z,17.38
2022-09-06T03:27:38.772Z,17.34
2022-09-06T03:30:06.954Z,17.22
2022-09-06T03:32:35.836Z,17.16
2022-09-06T03:35:02.791Z,17.25
2022-09-06T03:37:29.570Z,17.28
2022-09-06T03:39:56.452Z,17.25
2022-09-06T03:42:26.060Z,17.26
2022-09-06T03:44:53.669Z,17.19
2022-09-06T03:47:21.140Z,17.15
2022-09-06T03:49:47.925Z,17.10
2022-09-06T03:52:15.400Z,17.11
2022-09-06T03:54:42.069Z,17.20
2022-09-06T03:57:09.688Z,17.21
2022-09-06T03:59:36.796Z,17.23
2022-09-06T04:02:03.852Z,17.23
2022-09-06T04:04:30.590Z,17.30
2022-09-06T04:06:57.343Z,17.27
2022-09-06T04:09:24.240Z,17.37
2022-09-06T04:11:51.024Z,17.34
2022-09-06T04:14:17.710Z,17.38
2022-09-06T04:16:44.494Z,17.37
2022-09-06T04:19:11.150Z,17.37
2022-09-06T04:21:38.706Z,17.39
2022-09-06T04:24:05.464Z,17.40
2022-09-06T04:26:32.172Z,17.38
2022-09-06T04:28:58.836Z,17.37
2022-09-06T04:31:26.186Z,17.28
2022-09-06T04:33:53.663Z,17.39
2022-09-06T04:36:20.673Z,17.47
2022-09-06T04:39:06.557Z,17.45
2022-09-06T04:41:33.262Z,17.38
2022-09-06T04:43:59.914Z,17.39
2022-09-06T04:46:30.123Z,17.43
2022-09-06T04:48:58.086Z,17.44
2022-09-06T04:51:25.967Z,17.44
2022-09-06T04:53:53.204Z,17.44
2022-09-06T04:56:23.204Z,17.42
2022-09-06T04:58:51.731Z,17.45
2022-09-06T05:01:18.938Z,17.49
2022-09-06T05:03:45.890Z,17.46
2022-09-06T05:06:22.717Z,17.48
2022-09-06T05:08:50.601Z,17.61
2022-09-06T05:11:17.777Z,17.56
2022-09-06T05:13:46.955Z,17.55
2022-09-06T05:16:14.135Z,17.62
2022-09-06T05:18:40.877Z,17.55
2022-09-06T05:21:07.747Z,17.56
2022-09-06T05:23:34.620Z,17.59
2022-09-06T05:26:01.460Z,17.58
2022-09-06T05:28:28.171Z,17.66
2022-09-06T05:31:09.655Z,17.73
2022-09-06T05:33:37.399Z,17.80
2022-09-06T05:36:07.646Z,17.98
2022-09-06T05:38:40.294Z,18.01
2022-09-06T05:41:06.885Z,18.14
2022-09-06T05:43:33.488Z,18.14
2022-09-06T05:46:00.325Z,18.18
2022-09-06T05:48:27.093Z,18.25
2022-09-06T05:51:12.428Z,18.33
2022-09-06T05:53:45.391Z,18.32
2022-09-06T05:56:14.830Z,18.45
2022-09-06T05:58:41.610Z,18.43
2022-09-06T06:01:21.658Z,18.53
2022-09-06T06:03:55.229Z,18.59
2022-09-06T06:06:23.261Z,18.57
2022-09-06T06:08:50.441Z,18.69
2022-09-06T06:11:17.879Z,18.82
2022-09-06T06:13:45.109Z,18.91
2022-09-06T06:16:19.818Z,19.03
2022-09-06T06:18:51.740Z,19.06
2022-09-06T06:21:31.794Z,19.05
2022-09-06T06:24:04.533Z,19.03
2022-09-06T06:26:37.093Z,18.85
2022-09-06T06:29:05.796Z,18.78
2022-09-06T06:31:34.252Z,19.00
2022-09-06T06:34:03.659Z,18.88
2022-09-06T06:36:33.911Z,18.97
2022-09-06T06:39:19.254Z,18.99
2022-09-06T06:41:50.668Z,19.21
2022-09-06T06:44:17.270Z,19.38
2022-09-06T06:46:43.865Z,19.38
2022-09-06T06:49:11.271Z,19.39
2022-09-06T06:51:38.008Z,19.50
2022-09-06T06:54:05.842Z,19.61
2022-09-06T06:56:40.698Z,19.80
2022-09-06T06:59:08.142Z,19.98
2022-09-06T07:01:36.556Z,20.01
2022-09-06T07:04:04.818Z,20.30
2022-09-06T07:12:19.053Z,20.68
2022-09-06T07:14:45.818Z,20.74
2022-09-06T07:17:12.420Z,20.80
2022-09-06T07:22:25.688Z,21.02
2022-09-06T07:24:52.336Z,21.11
2022-09-06T07:30:06.428Z,21.38
2022-09-06T07:32:36.415Z,21.43
2022-09-06T07:35:03.221Z,21.48
2022-09-06T07:37:29.875Z,21.67
2022-09-06T07:39:56.602Z,21.70
2022-09-06T07:42:23.347Z,21.95
2022-09-06T07:44:49.982Z,22.16
2022-09-06T07:53:10.788Z,22.45
2022-09-06T07:55:39.089Z,22.56
2022-09-06T07:58:05.781Z,22.63
2022-09-06T08:00:32.755Z,22.76
2022-09-06T08:02:59.418Z,22.69
2022-09-06T08:10:59.345Z,22.77
2022-09-06T08:13:25.947Z,22.69
2022-09-06T08:16:06.375Z,22.77
2022-09-06T08:18:34.541Z,22.73
2022-09-06T08:21:13.283Z,22.55
2022-09-06T08:23:51.807Z,22.47
2022-09-06T08:26:21.381Z,22.50
2022-09-06T08:28:52.396Z,22.51
2022-09-06T08:31:19.736Z,22.55
2022-09-06T08:33:47.682Z,22.55
2022-09-06T08:36:15.297Z,22.60
2022-09-06T08:39:06.790Z,22.72
2022-09-06T08:41:49.372Z,22.92
2022-09-06T08:47:21.783Z,22.99
2022-09-06T08:49:55.249Z,23.11
2022-09-06T08:52:49.564Z,23.20
2022-09-06T08:55:48.013Z,23.14
2022-09-06T08:58:37.188Z,23.27
2022-09-06T09:01:18.100Z,23.33
2022-09-06T09:03:46.468Z,23.27
2022-09-06T09:06:13.112Z,23.60
2022-09-06T09:09:07.997Z,23.68
2022-09-06T09:11:36.322Z,23.76
2022-09-06T09:14:18.593Z,23.88
2022-09-06T09:16:45.759Z,23.93
2022-09-06T09:19:13.667Z,24.01
2022-09-06T09:21:40.700Z,24.14
2022-09-06T09:24:15.424Z,24.39
2022-09-06T09:26:56.098Z,24.46
2022-09-06T09:29:27.453Z,24.75
2022-09-06T09:31:56.650Z,25.06
2022-09-06T09:34:33.766Z,25.34
2022-09-06T09:40:26.381Z,25.12
2022-09-06T09:43:08.850Z,25.03
2022-09-06T09:45:35.472Z,25.09
2022-09-06T09:48:28.264Z,25.02
2022-09-06T09:50:56.065Z,24.95
2022-09-06T09:53:24.496Z,24.95
2022-09-06T09:55:59.401Z,24.97
2022-09-06T09:58:36.791Z,25.27
2022-09-06T10:01:33.006Z,25.25
2022-09-06T10:09:39.312Z,25.47
2022-09-06T10:12:07.314Z,25.32
2022-09-06T10:14:49.582Z,25.46
2022-09-06T10:17:37.320Z,25.50
2022-09-06T10:20:12.362Z,25.62
2022-09-06T10:23:00.207Z,25.72
2022-09-06T10:25:49.565Z,25.77
2022-09-06T10:28:39.105Z,25.95
2022-09-06T10:31:39.212Z,26.11
2022-09-06T10:34:27.254Z,26.15
2022-09-06T10:37:15.785Z,26.28
2022-09-06T10:39:56.677Z,26.26
2022-09-06T10:42:59.336Z,26.57
2022-09-06T10:45:49.888Z,26.76
2022-09-06T10:48:35.706Z,26.70
2022-09-06T10:51:50.356Z,26.68
2022-09-06T10:54:25.149Z,26.86
2022-09-06T11:00:13.532Z,27.05
2022-09-06T11:06:06.902Z,27.62
2022-09-06T11:08:47.315Z,27.71
2022-09-06T11:11:36.736Z,27.80
2022-09-06T11:14:13.129Z,27.87
2022-09-06T11:16:57.719Z,27.98
2022-09-06T11:19:38.809Z,28.19
2022-09-06T11:22:34.315Z,28.50
2022-09-06T11:25:35.119Z,28.58
2022-09-06T11:28:10.803Z,28.85
2022-09-06T11:30:42.866Z,28.82
2022-09-06T11:33:25.128Z,28.72
2022-09-06T11:35:56.740Z,28.90
2022-09-06T11:38:43.083Z,28.90
2022-09-06T11:41:40.033Z,28.80
2022-09-06T11:45:12.797Z,29.02
2022-09-06T11:47:42.642Z,29.06
2022-09-06T11:50:54.012Z,29.03
2022-09-06T11:53:24.065Z,29.08
2022-09-06T11:55:59.611Z,29.20
2022-09-06T11:58:53.587Z,28.77
2022-09-06T12:01:20.814Z,28.75
2022-09-06T12:04:09.870Z,28.79
2022-09-06T12:07:03.565Z,28.58
2022-09-06T12:09:39.378Z,28.50
2022-09-06T12:12:06.409Z,28.55
2022-09-06T12:14:42.621Z,28.35
2022-09-06T12:17:09.754Z,28.22
2022-09-06T12:20:06.595Z,28.54
2022-09-06T12:22:33.259Z,28.66
2022-09-06T12:25:08.706Z,28.83
2022-09-06T12:27:39.633Z,28.64
2022-09-06T12:30:13.745Z,28.41
2022-09-06T12:32:45.748Z,28.19
2022-09-06T12:38:17.094Z,27.99
2022-09-06T12:40:51.893Z,28.10
2022-09-06T12:43:20.171Z,28.13
2022-09-06T12:45:51.631Z,28.28
2022-09-06T12:48:35.419Z,28.15
2022-09-06T12:51:07.958Z,28.13
2022-09-06T12:53:35.579Z,28.26
2022-09-06T12:56:09.660Z,28.42
2022-09-06T12:58:38.721Z,28.50
2022-09-06T13:01:27.419Z,28.76
2022-09-06T13:04:39.763Z,28.99
2022-09-06T13:07:14.370Z,28.89
2022-09-06T13:09:46.948Z,29.02
2022-09-06T13:12:37.180Z,29.24
2022-09-06T13:15:19.686Z,29.44
2022-09-06T13:17:47.206Z,29.54
2022-09-06T13:20:27.394Z,29.70
2022-09-06T13:23:07.138Z,30.01
2022-09-06T13:25:33.778Z,30.33
2022-09-06T13:28:02.470Z,30.61
2022-09-06T13:31:03.464Z,30.81
2022-09-06T13:33:30.960Z,31.50
2022-09-06T13:36:28.009Z,32.54
2022-09-06T13:39:05.976Z,33.35
2022-09-06T13:41:38.888Z,34.65
2022-09-06T13:44:15.795Z,35.14
2022-09-06T13:46:42.658Z,36.37
2022-09-06T13:49:09.424Z,35.86
2022-09-06T13:51:39.241Z,36.66
2022-09-06T13:54:15.837Z,37.65
2022-09-06T13:56:46.152Z,38.14
2022-09-06T13:59:13.016Z,38.31
2022-09-06T14:01:43.244Z,37.85
2022-09-06T14:04:14.671Z,37.58
2022-09-06T14:06:41.877Z,37.46
2022-09-06T14:09:09.319Z,37.52
2022-09-06T14:11:37.028Z,36.69
2022-09-06T14:14:04.944Z,36.22
2022-09-06T14:16:33.416Z,35.97
2022-09-06T14:19:00.099Z,34.85
2022-09-06T14:21:26.771Z,34.72
2022-09-06T14:23:54.009Z,34.55
2022-09-06T14:26:22.425Z,33.87
2022-09-06T14:28:49.993Z,34.06
2022-09-06T14:31:25.852Z,33.18
2022-09-06T14:33:54.634Z,32.08
2022-09-06T14:36:26.845Z,31.49
2022-09-06T14:39:01.423Z,31.46
2022-09-06T14:41:28.860Z,31.17
2022-09-06T14:43:57.884Z,31.35
2022-09-06T14:46:27.358Z,31.01
2022-09-06T14:49:12.357Z,30.94
2022-09-06T14:51:40.608Z,30.78
2022-09-06T14:54:11.393Z,30.72
2022-09-06T14:56:41.146Z,30.56
2022-09-06T14:59:09.156Z,30.48
2022-09-06T15:01:38.594Z,30.42
2022-09-06T15:04:09.218Z,30.31
2022-09-06T15:06:40.171Z,30.37
2022-09-06T15:09:08.050Z,30.41
2022-09-06T15:11:40.902Z,30.42
2022-09-06T15:14:17.152Z,30.37
2022-09-06T15:16:46.569Z,30.31
2022-09-06T15:19:13.897Z,30.23
2022-09-06T15:21:41.084Z,30.30
2022-09-06T15:24:11.691Z,30.62
2022-09-06T15:26:40.957Z,30.72
2022-09-06T15:29:09.854Z,30.24
2022-09-06T15:31:38.003Z,30.15
2022-09-06T15:34:06.068Z,29.95
2022-09-06T15:36:33.355Z,29.81
2022-09-06T15:39:14.148Z,29.63
2022-09-06T15:41:41.247Z,29.53
2022-09-06T15:44:16.933Z,29.43
2022-09-06T15:46:50.110Z,29.41
2022-09-06T15:49:28.136Z,29.31
2022-09-06T15:51:58.677Z,29.20
2022-09-06T15:54:45.567Z,29.21
2022-09-06T15:57:16.233Z,29.37
2022-09-06T15:59:43.210Z,29.36
2022-09-06T16:02:10.745Z,29.35
2022-09-06T16:04:37.545Z,29.30
2022-09-06T16:07:05.687Z,29.41
2022-09-06T16:09:32.297Z,29.44
2022-09-06T16:11:58.971Z,29.31
2022-09-06T16:14:25.920Z,29.26
2022-09-06T16:16:54.686Z,29.32
2022-09-06T16:19:21.560Z,29.35
2022-09-06T16:21:48.233Z,29.19
2022-09-06T16:24:17.399Z,28.97
2022-09-06T16:26:49.104Z,28.89
2022-09-06T16:29:18.141Z,28.83
2022-09-06T16:31:45.739Z,28.71
2022-09-06T16:34:14.071Z,28.57
2022-09-06T16:36:41.276Z,28.39
2022-09-06T16:39:10.922Z,28.39
2022-09-06T16:41:42.417Z,28.29
2022-09-06T16:44:16.508Z,28.28
2022-09-06T16:46:50.191Z,28.22
2022-09-06T16:49:19.024Z,28.29
2022-09-06T16:51:48.412Z,28.42
2022-09-06T16:54:16.176Z,28.77
2022-09-06T16:56:43.456Z,28.95
2022-09-06T16:59:12.230Z,28.73
2022-09-06T17:01:45.080Z,28.74
2022-09-06T17:04:15.498Z,28.75
2022-09-06T17:06:44.418Z,28.82
2022-09-06T17:09:19.072Z,28.79
2022-09-06T17:11:49.743Z,28.71
2022-09-06T17:14:16.827Z,28.67
2022-09-06T17:17:02.216Z,28.71
2022-09-06T17:19:29.730Z,28.65
2022-09-06T17:21:56.339Z,28.51
2022-09-06T17:24:23.211Z,28.42
2022-09-06T17:26:49.935Z,28.51
2022-09-06T17:29:16.574Z,28.48
2022-09-06T17:31:43.340Z,28.30
2022-09-06T17:34:10.075Z,28.17
2022-09-06T17:36:37.445Z,27.90
2022-09-06T17:39:14.971Z,27.74
2022-09-06T17:41:46.023Z,27.59
2022-09-06T17:44:16.966Z,27.37
2022-09-06T17:47:02.661Z,27.26
2022-09-06T17:49:30.669Z,27.15
2022-09-06T17:51:58.047Z,27.00
2022-09-06T17:54:24.853Z,26.89
2022-09-06T17:56:51.547Z,26.71
2022-09-06T17:59:18.227Z,26.66
2022-09-06T18:01:45.924Z,26.52
2022-09-06T18:04:14.703Z,26.41
2022-09-06T18:06:43.437Z,26.32
2022-09-06T18:09:15.421Z,26.27
2022-09-06T18:11:45.925Z,26.17
2022-09-06T18:14:17.857Z,26.17
2022-09-06T18:16:47.031Z,26.03
2022-09-06T18:19:14.303Z,25.97
2022-09-06T18:21:41.433Z,25.92
2022-09-06T18:24:10.231Z,25.82
2022-09-06T18:26:37.603Z,25.65
2022-09-06T18:29:11.652Z,25.38
2022-09-06T18:31:39.599Z,25.11
2022-09-06T18:34:07.802Z,25.02
2022-09-06T18:36:35.183Z,24.98
2022-09-06T18:39:13.231Z,24.96
2022-09-06T18:41:58.517Z,24.92
2022-09-06T18:44:26.702Z,24.88
2022-09-06T18:46:55.807Z,24.85
2022-09-06T18:49:22.597Z,24.86
2022-09-06T18:51:50.276Z,24.80
2022-09-06T18:54:17.366Z,24.82
2022-09-06T18:56:48.887Z,24.78
2022-09-06T18:59:16.912Z,24.71
2022-09-06T19:01:44.019Z,24.63
2022-09-06T19:04:12.137Z,24.55
2022-09-06T19:06:43.732Z,24.48
2022-09-06T19:09:14.964Z,24.36
2022-09-06T19:11:43.402Z,24.33
2022-09-06T19:14:10.175Z,24.25
2022-09-06T19:16:36.921Z,24.20
2022-09-06T19:19:11.700Z,24.23
2022-09-06T19:21:42.078Z,24.18
2022-09-06T19:24:11.768Z,24.15
2022-09-06T19:26:41.851Z,24.12
2022-09-06T19:29:15.130Z,23.99
2022-09-06T19:31:43.667Z,23.87
2022-09-06T19:34:12.167Z,23.72
2022-09-06T19:36:39.250Z,23.58
2022-09-06T19:39:09.691Z,23.46
2022-09-06T19:41:38.985Z,23.26
2022-09-06T19:44:08.383Z,23.17
2022-09-06T19:46:36.143Z,23.02
2022-09-06T19:49:03.516Z,22.97
2022-09-06T19:51:30.197Z,22.92
2022-09-06T19:54:00.383Z,22.90
2022-09-06T19:56:31.545Z,22.82
2022-09-06T19:59:09.968Z,22.63
2022-09-06T20:01:38.763Z,22.46
2022-09-06T20:04:08.697Z,22.40
2022-09-06T20:06:36.190Z,22.35
2022-09-06T20:09:06.779Z,22.29
2022-09-06T20:11:36.180Z,22.25
2022-09-06T20:14:03.555Z,22.27
2022-09-06T20:16:30.750Z,22.25
2022-09-06T20:18:59.005Z,22.28
2022-09-06T20:21:27.430Z,22.31
2022-09-06T20:23:57.086Z,22.29
2022-09-06T20:26:25.839Z,22.26
2022-09-06T20:28:58.259Z,22.27
2022-09-06T20:31:28.770Z,22.19
2022-09-06T20:33:56.429Z,22.24
2022-09-06T20:36:23.215Z,22.18
2022-09-06T20:39:09.616Z,22.16
2022-09-06T20:41:37.489Z,22.03
2022-09-06T20:44:04.745Z,21.97
2022-09-06T20:46:35.388Z,22.00
2022-09-06T20:49:04.756Z,22.03
2022-09-06T20:51:34.207Z,22.00
2022-09-06T20:54:02.875Z,22.03
2022-09-06T20:56:37.085Z,21.86
2022-09-06T20:59:09.091Z,21.83
2022-09-06T21:01:46.519Z,21.77
2022-09-06T21:04:16.507Z,21.35
2022-09-06T21:06:45.740Z,21.34
2022-09-06T21:09:14.825Z,21.35
2022-09-06T21:11:42.528Z,21.35
2022-09-06T21:14:10.191Z,21.35
2022-09-06T21:16:38.490Z,21.32
2022-09-06T21:19:09.220Z,21.31
2022-09-06T21:21:37.294Z,21.32
2022-09-06T21:24:07.024Z,21.30
2022-09-06T21:26:33.906Z,21.26
2022-09-06T21:29:00.627Z,21.36
2022-09-06T21:31:36.582Z,21.43
2022-09-06T21:34:09.784Z,21.46
2022-09-06T21:36:40.169Z,21.39
2022-09-06T21:39:12.200Z,21.38
2022-09-06T21:41:42.388Z,21.42
2022-09-06T21:44:10.448Z,21.44
2022-09-06T21:46:39.235Z,21.37
2022-09-06T21:49:10.213Z,21.29
2022-09-06T21:51:37.134Z,21.27
2022-09-06T21:54:05.790Z,21.23
2022-09-06T21:56:35.818Z,21.25
2022-09-06T21:59:03.920Z,21.19
2022-09-06T22:01:33.093Z,21.16
2022-09-06T22:04:00.530Z,21.14
2022-09-06T22:06:30.419Z,21.02
2022-09-06T22:09:03.811Z,20.87
2022-09-06T22:11:34.202Z,20.91
2022-09-06T22:14:06.090Z,20.89
2022-09-06T22:16:36.735Z,20.89
2022-09-06T22:19:05.948Z,20.77
2022-09-06T22:21:33.843Z,20.81
2022-09-06T22:24:05.992Z,20.75
2022-09-06T22:26:36.573Z,20.75
2022-09-06T22:29:07.498Z,20.68
2022-09-06T22:31:35.589Z,20.60
2022-09-06T22:34:03.137Z,20.61
2022-09-06T22:36:29.794Z,20.52
2022-09-06T22:39:06.778Z,20.46
2022-09-06T22:41:34.149Z,20.49
2022-09-06T22:44:02.439Z,20.42
2022-09-06T22:46:30.012Z,20.35
2022-09-06T22:48:57.123Z,20.32
2022-09-06T22:51:23.875Z,20.29
2022-09-06T22:53:50.817Z,20.24
2022-09-06T22:56:17.973Z,20.19
2022-09-06T22:58:44.653Z,20.19
2022-09-06T23:01:16.146Z,20.18
2022-09-06T23:03:43.762Z,20.14
2022-09-06T23:06:10.542Z,20.16
2022-09-06T23:08:39.407Z,20.15
2022-09-06T23:11:11.619Z,20.14
2022-09-06T23:13:43.483Z,20.12
2022-09-06T23:16:14.261Z,20.17
2022-09-06T23:18:40.844Z,20.15
2022-09-06T23:21:11.820Z,20.09
2022-09-06T23:23:40.459Z,20.12
2022-09-06T23:26:16.273Z,20.18
2022-09-06T23:28:43.523Z,20.21
2022-09-06T23:31:15.488Z,20.26
2022-09-06T23:33:42.411Z,20.33
2022-09-06T23:36:12.807Z,20.35
2022-09-06T23:38:52.838Z,20.33
2022-09-06T23:41:19.489Z,20.28
2022-09-06T23:43:46.138Z,20.23
2022-09-06T23:46:15.032Z,20.24
2022-09-06T23:48:43.463Z,20.22
2022-09-06T23:51:11.109Z,20.13
2022-09-06T23:53:39.372Z,20.17
2022-09-06T23:56:06.971Z,20.09
2022-09-06T23:58:34.446Z,20.11
